createdAt,value
2023-05-20T00:02:57.766Z,52.80
2023-05-20T00:08:00.700Z,53.00
2023-05-20T00:13:03.115Z,53.60
2023-05-20T00:18:05.890Z,53.10
2023-05-20T00:23:08.257Z,53.80
2023-05-20T00:28:10.768Z,53.30
2023-05-20T00:33:13.348Z,53.30
2023-05-20T00:38:15.798Z,53.40
2023-05-20T00:43:18.081Z,53.60
2023-05-20T00:48:21.845Z,53.70
2023-05-20T00:53:24.595Z,53.90
2023-05-20T00:58:27.155Z,54.00
2023-05-20T01:03:30.232Z,54.10
2023-05-20T01:08:34.308Z,54.30
2023-05-20T01:13:45.685Z,54.10
2023-05-20T01:18:48.809Z,54.50
2023-05-20T01:23:51.272Z,54.50
2023-05-20T01:28:54.193Z,54.40
2023-05-20T01:33:58.600Z,54.60
2023-05-20T01:39:02.744Z,54.50
2023-05-20T01:44:05.381Z,54.70
2023-05-20T01:49:07.677Z,54.80
2023-05-20T01:54:09.932Z,54.70
2023-05-20T01:59:12.561Z,54.70
2023-05-20T02:04:15.636Z,54.80
2023-05-20T02:09:18.950Z,55.40
2023-05-20T02:14:21.317Z,55.30
2023-05-20T02:19:23.988Z,55.50
2023-05-20T02:24:26.485Z,55.50
2023-05-20T02:29:29.418Z,55.70
2023-05-20T02:34:33.132Z,55.60
2023-05-20T02:39:35.665Z,55.70
2023-05-20T02:44:37.879Z,55.70
2023-05-20T02:49:40.153Z,55.70
2023-05-20T02:54:42.392Z,55.80
2023-05-20T02:59:44.951Z,55.80
2023-05-20T03:04:47.426Z,55.80
2023-05-20T03:09:49.889Z,55.80
2023-05-20T03:14:55.448Z,56.00
2023-05-20T03:19:58.567Z,56.20
2023-05-20T03:25:02.486Z,56.10
2023-05-20T03:30:07.469Z,56.20
2023-05-20T03:35:10.167Z,56.20
2023-05-20T03:40:13.212Z,56.40
2023-05-20T03:45:16.608Z,56.40
2023-05-20T03:50:28.817Z,56.70
2023-05-20T03:55:32.551Z,56.70
2023-05-20T04:00:35.792Z,56.80
2023-05-20T04:05:38.356Z,57.10
2023-05-20T04:10:49.518Z,57.50
2023-05-20T04:15:53.289Z,57.70
2023-05-20T04:20:56.621Z,58.20
2023-05-20T04:26:02.667Z,58.40
2023-05-20T04:31:07.651Z,58.40
2023-05-20T04:36:16.487Z,58.50
2023-05-20T04:41:19.892Z,58.60
2023-05-20T04:46:22.433Z,58.70
2023-05-20T04:51:25.110Z,58.90
2023-05-20T04:56:27.696Z,59.00
2023-05-20T05:01:30.160Z,59.20
2023-05-20T05:06:33.180Z,59.30
2023-05-20T05:11:35.748Z,59.60
2023-05-20T05:16:38.241Z,59.80
2023-05-20T05:21:40.665Z,60.00
2023-05-20T05:26:43.034Z,60.40
2023-05-20T05:31:45.509Z,61.00
2023-05-20T05:36:47.866Z,60.70
2023-05-20T05:41:50.532Z,60.80
2023-05-20T05:46:54.194Z,60.90
2023-05-20T05:51:56.582Z,61.00
2023-05-20T05:57:00.222Z,61.00
2023-05-20T06:02:05.134Z,60.70
2023-05-20T06:07:07.526Z,61.00
2023-05-20T06:12:10.928Z,61.20
2023-05-20T06:17:15.306Z,61.20
2023-05-20T06:22:17.767Z,61.20
2023-05-20T06:27:21.170Z,61.20
2023-05-20T06:32:23.509Z,61.00
2023-05-20T06:37:27.862Z,61.00
2023-05-20T06:42:30.403Z,60.90
2023-05-20T06:47:41.232Z,60.80
2023-05-20T06:52:44.544Z,60.90
2023-05-20T06:57:47.805Z,61.00
2023-05-20T07:02:52.813Z,60.80
2023-05-20T07:07:56.067Z,61.30
2023-05-20T07:12:58.397Z,60.10
2023-05-20T07:18:01.700Z,60.00
2023-05-20T07:23:04.316Z,60.10
2023-05-20T07:28:13.056Z,60.10
2023-05-20T07:33:35.976Z,59.90
2023-05-20T07:38:41.018Z,60.20
2023-05-20T07:43:44.650Z,60.00
2023-05-20T07:48:47.598Z,60.20
2023-05-20T07:53:51.190Z,60.10
2023-05-20T07:58:58.490Z,60.30
2023-05-20T08:04:04.386Z,60.50
2023-05-20T08:09:07.425Z,60.50
2023-05-20T08:14:14.299Z,60.70
2023-05-20T08:19:19.557Z,60.80
2023-05-20T08:24:24.179Z,60.80
2023-05-20T08:29:26.836Z,61.30
2023-05-20T08:34:29.339Z,61.50
2023-05-20T08:39:31.719Z,61.60
2023-05-20T08:44:34.915Z,61.70
2023-05-20T08:49:37.835Z,62.00
2023-05-20T08:54:49.825Z,62.00
2023-05-20T08:59:52.255Z,62.30
2023-05-20T09:04:55.509Z,62.50
2023-05-20T09:09:58.614Z,62.80
2023-05-20T09:15:00.938Z,63.00
2023-05-20T09:20:08.826Z,63.00
2023-05-20T09:25:13.386Z,63.80
2023-05-20T09:30:18.922Z,64.00
2023-05-20T09:35:23.500Z,64.10
2023-05-20T09:40:28.169Z,64.20
2023-05-20T09:45:31.039Z,64.30
2023-05-20T09:50:34.329Z,64.50
2023-05-20T09:55:37.845Z,64.90
2023-05-20T10:00:40.828Z,65.30
2023-05-20T10:05:54.984Z,65.00
2023-05-20T10:21:19.302Z,65.40
2023-05-20T10:26:22.528Z,66.60
2023-05-20T10:31:25.914Z,66.40
2023-05-20T10:36:30.854Z,65.50
2023-05-20T10:41:34.938Z,63.90
2023-05-20T10:46:51.456Z,62.40
2023-05-20T10:52:00.823Z,61.90
2023-05-20T10:57:09.477Z,61.50
2023-05-20T11:02:13.480Z,60.40
2023-05-20T11:07:29.368Z,58.60
2023-05-20T11:12:33.407Z,57.90
2023-05-20T11:17:35.677Z,56.80
2023-05-20T11:22:40.726Z,56.80
2023-05-20T11:27:43.892Z,54.20
2023-05-20T11:33:03.479Z,56.50
2023-05-20T11:38:09.463Z,54.70
2023-05-20T11:43:13.139Z,55.60
2023-05-20T11:48:16.612Z,56.10
2023-05-20T11:53:21.012Z,56.20
2023-05-20T11:58:27.043Z,56.90
2023-05-20T12:03:29.474Z,56.80
2023-05-20T12:08:31.942Z,57.50
2023-05-20T12:13:35.446Z,57.40
2023-05-20T12:18:37.833Z,57.60
2023-05-20T12:23:40.179Z,58.50
2023-05-20T12:28:42.465Z,58.80
2023-05-20T12:33:44.843Z,58.80
2023-05-20T12:38:47.251Z,58.00
2023-05-20T12:43:49.597Z,55.90
2023-05-20T12:48:51.872Z,55.40
2023-05-20T12:53:54.165Z,55.10
2023-05-20T12:58:58.213Z,54.50
2023-05-20T13:04:00.726Z,53.70
2023-05-20T13:09:03.121Z,53.30
2023-05-20T13:14:05.393Z,54.60
2023-05-20T13:19:08.064Z,54.30
2023-05-20T13:24:10.711Z,54.90
2023-05-20T13:29:13.972Z,53.60
2023-05-20T13:34:16.523Z,53.80
2023-05-20T13:39:19.741Z,53.30
2023-05-20T13:44:22.165Z,53.00
2023-05-20T13:49:25.721Z,53.10
2023-05-20T13:54:28.007Z,54.10
2023-05-20T13:59:30.369Z,54.10
2023-05-20T14:04:38.049Z,54.60
2023-05-20T14:09:40.433Z,54.70
2023-05-20T14:14:42.696Z,55.20
2023-05-20T14:19:45.105Z,55.30
2023-05-20T14:24:47.417Z,55.10
2023-05-20T14:29:49.693Z,54.40
2023-05-20T14:34:53.805Z,54.50
2023-05-20T14:39:56.303Z,54.30
2023-05-20T14:44:58.757Z,54.30
2023-05-20T14:50:01.051Z,54.30
2023-05-20T14:55:03.471Z,54.50
2023-05-20T15:00:06.219Z,54.60
2023-05-20T15:05:09.018Z,54.30
2023-05-20T15:10:11.749Z,54.20
2023-05-20T15:15:14.022Z,54.70
2023-05-20T15:20:16.525Z,54.60
2023-05-20T15:25:18.844Z,54.60
2023-05-20T15:30:22.868Z,54.70
2023-05-20T15:35:25.346Z,54.30
2023-05-20T15:40:28.213Z,54.70
2023-05-20T15:45:32.021Z,54.40
2023-05-20T15:50:36.983Z,54.50
2023-05-20T15:55:39.495Z,54.30
2023-05-20T16:00:41.958Z,54.30
2023-05-20T16:05:44.233Z,54.30
2023-05-20T16:10:46.686Z,54.30
2023-05-20T16:15:51.208Z,54.30
2023-05-20T16:20:53.827Z,54.30
2023-05-20T16:25:56.164Z,54.00
2023-05-20T16:30:58.585Z,53.20
2023-05-20T16:36:01.430Z,53.10
2023-05-20T16:41:03.747Z,53.10
2023-05-20T16:46:06.013Z,52.60
2023-05-20T16:51:08.316Z,52.60
2023-05-20T16:56:10.619Z,52.40
2023-05-20T17:01:13.186Z,51.90
2023-05-20T17:06:15.613Z,51.90
2023-05-20T17:11:17.935Z,51.70
2023-05-20T17:16:20.496Z,51.40
2023-05-20T17:21:22.896Z,51.30
2023-05-20T17:26:25.407Z,51.40
2023-05-20T17:31:27.954Z,50.90
2023-05-20T17:36:31.588Z,50.90
2023-05-20T17:41:33.825Z,50.60
2023-05-20T17:46:36.164Z,50.40
2023-05-20T17:51:38.571Z,50.60
2023-05-20T17:56:41.672Z,50.30
2023-05-20T18:01:44.823Z,50.10
2023-05-20T18:06:47.322Z,50.50
2023-05-20T18:11:49.652Z,50.10
2023-05-20T18:16:52.332Z,50.20
2023-05-20T18:21:54.655Z,50.40
2023-05-20T18:26:57.691Z,50.40
2023-05-20T18:32:00.072Z,50.30
2023-05-20T18:37:02.354Z,50.40
2023-05-20T18:42:04.926Z,50.60
2023-05-20T18:47:07.670Z,50.40
2023-05-20T18:52:10.069Z,50.30
2023-05-20T18:57:12.424Z,50.30
2023-05-20T19:02:17.003Z,50.20
2023-05-20T19:07:19.839Z,50.50
2023-05-20T19:12:22.125Z,50.30
2023-05-20T19:17:24.659Z,50.40
2023-05-20T19:22:27.024Z,50.40
2023-05-20T19:27:29.329Z,50.60
2023-05-20T19:32:31.779Z,50.40
2023-05-20T19:37:34.125Z,50.60
2023-05-20T19:42:37.815Z,50.70
2023-05-20T19:47:40.355Z,50.80
2023-05-20T19:52:42.897Z,51.00
2023-05-20T19:57:46.875Z,50.90
2023-05-20T20:02:50.057Z,50.90
2023-05-20T20:07:52.416Z,50.80
2023-05-20T20:12:54.737Z,51.00
2023-05-20T20:17:57.254Z,51.10
2023-05-20T20:22:59.590Z,51.30
2023-05-20T20:28:01.967Z,51.20
2023-05-20T20:33:06.591Z,51.50
2023-05-20T20:38:10.042Z,51.50
2023-05-20T20:43:20.518Z,51.50
2023-05-20T20:48:27.264Z,51.40
2023-05-20T20:53:29.831Z,51.50
2023-05-20T20:58:34.915Z,51.50
2023-05-20T21:03:40.552Z,51.60
2023-05-20T21:08:43.119Z,51.50
2023-05-20T21:13:45.404Z,51.60
2023-05-20T21:18:47.967Z,51.60
2023-05-20T21:23:52.132Z,51.40
2023-05-20T21:28:54.450Z,51.50
2023-05-20T21:33:56.772Z,51.50
2023-05-20T21:38:59.216Z,51.60
2023-05-20T21:44:01.470Z,51.50
2023-05-20T21:49:03.775Z,51.60
2023-05-20T21:54:06.080Z,51.60
2023-05-20T21:59:08.336Z,51.70
2023-05-20T22:04:12.077Z,51.70
2023-05-20T22:09:14.414Z,51.80
2023-05-20T22:14:17.300Z,51.80
2023-05-20T22:19:19.686Z,51.80
2023-05-20T22:24:22.086Z,51.90
2023-05-20T22:29:24.395Z,52.00
2023-05-20T22:34:26.721Z,52.10
2023-05-20T22:39:29.189Z,52.10
2023-05-20T22:44:31.492Z,52.20
2023-05-20T22:49:33.784Z,52.20
2023-05-20T22:54:36.079Z,52.20
2023-05-20T22:59:39.074Z,52.40
2023-05-20T23:04:41.727Z,52.30
2023-05-20T23:09:43.990Z,52.40
2023-05-20T23:14:46.320Z,52.50
2023-05-20T23:19:48.625Z,52.50
2023-05-20T23:24:50.984Z,52.50
2023-05-20T23:29:53.256Z,52.50
2023-05-20T23:34:55.627Z,52.60
2023-05-20T23:39:58.092Z,52.60
2023-05-20T23:45:00.710Z,52.70
2023-05-20T23:50:03.353Z,52.70
2023-05-20T23:55:14.356Z,52.90
